Time;durP1;ratioP1;P1;durP2;ratioP2;P2;SDS_P1;SDS_P2;PMS_P1;PMS_P2;Temp;Humidity;BMP_temperature;BMP_pressure;BME280_temperature;BME280_humidity;BME280_pressure;Samples;Min_cycle;Max_cycle;Signal;HPM_P1;HPM_P2
2021/08/07 00:00:41;;;;;;;4.90;2.08;;;;;;;21.34;57.63;100346.78;4970526;28;113557;-75
2021/08/07 00:03:09;;;;;;;3.05;2.00;;;;;;;21.33;57.68;100351.34;4969816;28;113920;-75
2021/08/07 00:05:37;;;;;;;3.88;2.00;;;;;;;21.30;57.62;100348.94;4969557;28;123859;-75
2021/08/07 00:08:04;;;;;;;3.97;1.98;;;;;;;21.28;57.76;100350.94;4972471;28;123681;-75
2021/08/07 00:10:31;;;;;;;3.83;1.85;;;;;;;21.24;57.64;100360.31;4972888;28;114837;-75
2021/08/07 00:13:00;;;;;;;3.95;1.95;;;;;;;21.21;57.97;100349.88;4973346;28;114381;-75
2021/08/07 00:15:28;;;;;;;4.30;2.03;;;;;;;21.19;57.87;100350.03;4973040;28;123860;-75
2021/08/07 00:17:55;;;;;;;2.63;2.00;;;;;;;21.19;57.90;100358.09;4972067;28;123736;-75
2021/08/07 00:20:22;;;;;;;4.20;1.90;;;;;;;21.17;57.88;100357.41;4954974;28;113734;-75
2021/08/07 00:22:49;;;;;;;5.40;2.33;;;;;;;21.15;57.86;100362.09;4973865;28;114063;-74
2021/08/07 00:25:17;;;;;;;5.15;1.90;;;;;;;21.14;58.06;100368.47;4971075;28;122963;-75
2021/08/07 00:27:44;;;;;;;5.53;2.00;;;;;;;21.13;57.97;100364.06;4973688;28;123735;-75
2021/08/07 00:30:13;;;;;;;3.65;2.00;;;;;;;21.11;58.12;100366.06;4971691;28;115450;-75
2021/08/07 00:32:40;;;;;;;3.45;2.10;;;;;;;21.10;58.05;100369.75;4972211;28;115449;-75
2021/08/07 00:35:12;;;;;;;3.40;2.00;;;;;;;21.07;58.04;100364.66;4970657;28;123497;-75
2021/08/07 00:37:41;;;;;;;3.97;2.15;;;;;;;21.04;58.14;100356.91;4971102;28;123640;-75
2021/08/07 00:40:12;;;;;;;3.30;2.10;;;;;;;21.01;58.29;100354.50;4971105;28;113705;-75
2021/08/07 00:42:41;;;;;;;5.18;2.30;;;;;;;20.99;58.38;100364.56;4971856;28;113533;-76
2021/08/07 00:45:16;;;;;;;3.95;2.15;;;;;;;20.97;58.19;100364.72;4971000;28;123321;-75
2021/08/07 00:47:46;;;;;;;6.03;2.15;;;;;;;20.93;58.42;100357.94;4971361;28;123273;-75
2021/08/07 00:50:15;;;;;;;3.03;2.17;;;;;;;20.92;58.43;100355.38;4971660;28;113435;-75
2021/08/07 00:52:45;;;;;;;5.07;2.28;;;;;;;20.87;58.52;100346.91;4972080;28;113308;-75
2021/08/07 00:55:18;;;;;;;3.90;2.35;;;;;;;20.84;58.52;100341.84;4963263;28;123982;-76
2021/08/07 00:57:46;;;;;;;3.50;2.20;;;;;;;20.82;58.58;100343.81;4971007;28;123459;-75
2021/08/07 01:00:18;;;;;;;3.65;2.30;;;;;;;20.79;58.74;100351.19;4968690;28;114769;-75
2021/08/07 01:03:19;;;;;;;3.75;2.35;;;;;;;20.77;58.70;100347.78;4971467;28;113353;-75
2021/08/07 01:06:12;;;;;;;3.65;2.00;;;;;;;20.74;58.69;100342.72;4969887;28;124027;-75
2021/08/07 01:08:48;;;;;;;5.70;2.28;;;;;;;20.71;58.73;100336.78;4964283;28;124473;-75
2021/08/07 01:11:25;;;;;;;3.92;2.10;;;;;;;20.70;58.85;100341.31;4971264;28;113476;-75
2021/08/07 01:14:01;;;;;;;3.42;2.10;;;;;;;20.70;58.81;100330.56;4964401;28;113643;-75
2021/08/07 01:16:31;;;;;;;3.92;1.90;;;;;;;20.69;58.96;100334.22;4970519;28;123308;-75
2021/08/07 01:19:03;;;;;;;4.95;2.28;;;;;;;20.70;59.21;100325.16;4962843;28;124207;-75
2021/08/07 01:21:40;;;;;;;4.32;2.20;;;;;;;20.70;58.98;100325.16;4970543;28;113395;-76
2021/08/07 01:24:16;;;;;;;3.13;1.90;;;;;;;20.70;59.21;100324.31;4971265;28;114437;-76
2021/08/07 01:27:09;;;;;;;4.38;2.00;;;;;;;20.69;59.09;100328.84;4970598;28;123095;-76
2021/08/07 01:29:37;;;;;;;4.43;2.15;;;;;;;20.68;59.13;100332.53;4953017;28;123407;-74
2021/08/07 01:32:06;;;;;;;4.28;1.80;;;;;;;20.67;59.14;100330.84;4982131;28;113382;-75
2021/08/07 01:34:39;;;;;;;3.53;1.98;;;;;;;20.67;59.08;100336.22;4974060;28;112768;-74
2021/08/07 01:37:10;;;;;;;2.53;2.00;;;;;;;20.69;59.08;100328.00;4966995;28;123191;-74
2021/08/07 01:39:49;;;;;;;4.97;2.30;;;;;;;20.68;59.11;100329.84;4959770;28;122884;-74
2021/08/07 01:42:25;;;;;;;3.63;2.13;;;;;;;20.68;59.13;100332.53;4970076;28;113669;-74
2021/08/07 01:44:54;;;;;;;3.92;2.10;;;;;;;20.71;58.97;100332.22;4969867;28;113134;-75
2021/08/07 01:47:32;;;;;;;3.97;2.10;;;;;;;20.71;58.96;100332.22;4969355;28;123059;-74
2021/08/07 01:50:13;;;;;;;2.72;1.85;;;;;;;20.69;59.12;100328.84;4963237;28;122324;-75
2021/08/07 01:52:48;;;;;;;3.33;2.10;;;;;;;20.69;58.91;100334.22;4966597;28;114022;-75
2021/08/07 01:55:29;;;;;;;2.95;2.10;;;;;;;20.66;58.78;100331.81;4969967;28;113882;-75
2021/08/07 01:58:12;;;;;;;3.17;1.95;;;;;;;20.65;58.88;100327.44;4969732;28;122989;-75
2021/08/07 02:00:44;;;;;;;4.50;2.13;;;;;;;20.64;58.98;100332.97;4950360;28;123415;-75
2021/08/07 02:03:25;;;;;;;2.90;2.05;;;;;;;20.61;58.93;100331.44;4969586;28;113359;-75
2021/08/07 02:05:53;;;;;;;2.90;1.77;;;;;;;20.59;58.76;100338.78;4970374;28;113621;-75
2021/08/07 02:08:20;;;;;;;2.83;1.92;;;;;;;20.55;58.95;100337.34;4953672;28;123851;-74
2021/08/07 02:10:54;;;;;;;3.08;2.00;;;;;;;20.53;58.91;100333.97;4970072;28;124365;-75
2021/08/07 02:13:21;;;;;;;2.90;2.00;;;;;;;20.50;58.76;100328.88;4970748;28;115185;-74
2021/08/07 02:15:55;;;;;;;2.75;1.98;;;;;;;20.47;58.86;100334.56;4969961;28;114322;-74
2021/08/07 02:18:29;;;;;;;3.22;2.05;;;;;;;20.42;58.86;100338.53;4969283;28;123327;-75
2021/08/07 02:20:58;;;;;;;3.67;1.98;;;;;;;20.39;59.09;100338.81;4969857;28;122965;-74
2021/08/07 02:23:30;;;;;;;3.38;2.10;;;;;;;20.36;58.97;100340.94;4952418;28;113456;-74
2021/08/07 02:26:00;;;;;;;2.72;1.92;;;;;;;20.33;59.29;100339.41;4969536;28;114077;-75
2021/08/07 02:28:38;;;;;;;4.53;2.10;;;;;;;20.31;59.11;100336.00;4964547;28;123705;-74
2021/08/07 02:31:10;;;;;;;3.40;2.05;;;;;;;20.30;59.24;100326.22;4969456;28;122952;-74
2021/08/07 02:33:43;;;;;;;3.67;2.10;;;;;;;20.29;59.27;100332.63;4970009;28;114770;-75
2021/08/07 02:36:15;;;;;;;4.63;2.35;;;;;;;20.28;59.29;100325.53;4963223;28;113537;-75
2021/08/07 02:38:46;;;;;;;7.63;2.65;;;;;;;20.26;59.51;100322.13;4955665;28;123270;-75
2021/08/07 02:41:14;;;;;;;3.45;2.17;;;;;;;20.26;59.59;100316.75;4969263;28;123110;-74
2021/08/07 02:43:46;;;;;;;2.75;2.00;;;;;;;20.27;59.44;100318.47;4969022;28;114646;-75
2021/08/07 02:46:15;;;;;;;4.97;3.05;;;;;;;20.28;59.48;100314.75;4969865;28;112479;-74
2021/08/07 02:48:44;;;;;;;6.15;2.40;;;;;;;20.29;59.47;100316.47;4967561;28;123694;-75
2021/08/07 02:51:12;;;;;;;3.65;2.38;;;;;;;20.29;59.51;100308.41;4968379;28;123055;-75
2021/08/07 02:53:48;;;;;;;5.43;2.70;;;;;;;20.30;59.62;100312.78;4961638;28;113842;-75
2021/08/07 02:56:18;;;;;;;3.97;2.30;;;;;;;20.31;59.61;100319.88;4968880;28;113147;-74
2021/08/07 02:58:45;;;;;;;3.53;2.25;;;;;;;20.31;59.61;100314.50;4969297;28;123486;-74
2021/08/07 03:01:14;;;;;;;3.85;2.60;;;;;;;20.33;59.65;100323.25;4968838;28;123173;-75
2021/08/07 03:03:47;;;;;;;4.47;2.72;;;;;;;20.34;59.68;100324.97;4968695;28;114913;-75
2021/08/07 03:06:15;;;;;;;3.85;2.53;;;;;;;20.34;59.66;100324.97;4952929;28;114544;-74
2021/08/07 03:08:42;;;;;;;5.05;2.70;;;;;;;20.33;59.69;100323.25;4952730;28;123544;-75
2021/08/07 03:11:13;;;;;;;5.07;2.78;;;;;;;20.34;59.66;100324.97;4968306;28;124235;-75
2021/08/07 03:13:41;;;;;;;4.55;2.78;;;;;;;20.34;59.85;100330.34;4969121;28;113812;-75
2021/08/07 03:16:09;;;;;;;4.70;3.35;;;;;;;20.31;59.76;100325.25;4952916;28;112281;-75
2021/08/07 03:18:41;;;;;;;4.32;2.88;;;;;;;20.31;59.82;100319.88;4968930;28;124352;-75
2021/08/07 03:21:09;;;;;;;3.80;3.03;;;;;;;20.30;59.83;100318.16;4968542;28;123035;-74
2021/08/07 03:23:45;;;;;;;6.10;3.33;;;;;;;20.29;59.78;100311.09;4954141;28;113522;-75
2021/08/07 03:26:13;;;;;;;4.70;2.95;;;;;;;20.26;59.93;100308.69;4968645;28;114071;-75
2021/08/07 03:28:40;;;;;;;6.47;3.20;;;;;;;20.26;60.03;100316.75;4967363;28;123620;-74
2021/08/07 03:31:11;;;;;;;4.13;2.90;;;;;;;20.24;60.01;100308.00;4968688;28;122696;-74
2021/08/07 03:33:39;;;;;;;6.03;2.83;;;;;;;20.23;59.94;100317.06;4969009;28;113451;-75
2021/08/07 03:36:09;;;;;;;6.35;2.88;;;;;;;20.22;60.06;100304.59;4968589;28;113324;-74
2021/08/07 03:38:38;;;;;;;4.38;2.97;;;;;;;20.21;60.09;100308.28;4968366;28;122487;-75
2021/08/07 03:41:05;;;;;;;4.30;2.80;;;;;;;20.20;60.23;100302.06;4953366;28;123933;-75
2021/08/07 03:43:33;;;;;;;3.88;3.08;;;;;;;20.19;60.11;100296.81;4972343;28;113673;-75
2021/08/07 03:46:01;;;;;;;4.45;2.60;;;;;;;20.19;59.95;100294.13;4972346;28;113486;-75
2021/08/07 03:48:30;;;;;;;4.93;2.70;;;;;;;20.19;59.89;100295.00;4968264;28;123646;-75
2021/08/07 03:50:58;;;;;;;4.18;2.55;;;;;;;20.19;59.99;100296.81;4979710;28;123388;-75
2021/08/07 03:53:34;;;;;;;3.97;2.47;;;;;;;20.18;59.84;100297.81;4970850;28;114587;-74
2021/08/07 03:56:01;;;;;;;6.75;2.70;;;;;;;20.16;59.85;100295.28;4972723;28;115459;-75
2021/08/07 03:58:29;;;;;;;4.38;2.65;;;;;;;20.14;59.78;100293.72;4971681;28;123260;-75
2021/08/07 04:01:03;;;;;;;4.43;2.43;;;;;;;20.14;59.82;100301.78;4957256;28;123142;-74
2021/08/07 04:03:34;;;;;;;5.55;2.50;;;;;;;20.13;59.73;100305.47;4983303;28;113566;-74
2021/08/07 04:06:23;;;;;;;4.57;2.47;;;;;;;20.11;60.02;100302.06;4963090;28;113170;-74
2021/08/07 04:08:51;;;;;;;3.13;2.00;;;;;;;20.10;59.65;100295.00;4970889;28;123979;-74
2021/08/07 04:11:19;;;;;;;4.15;2.10;;;;;;;20.08;59.74;100296.97;4971341;28;123016;-74
2021/08/07 04:13:54;;;;;;;3.53;2.15;;;;;;;20.05;59.83;100295.44;4971032;28;113855;-75
2021/08/07 04:16:22;;;;;;;5.35;2.90;;;;;;;20.04;59.87;100296.41;4954900;28;112380;-74
2021/08/07 04:18:50;;;;;;;2.92;2.20;;;;;;;20.03;59.96;100295.56;4971070;28;123702;-74
2021/08/07 04:21:20;;;;;;;3.35;2.40;;;;;;;20.01;59.69;100292.19;4970987;28;123264;-74
2021/08/07 04:23:49;;;;;;;4.13;2.60;;;;;;;19.99;59.73;100285.25;4971158;28;113925;-75
2021/08/07 04:26:18;;;;;;;4.63;2.33;;;;;;;19.96;59.58;100283.69;4970424;28;113317;-74
2021/08/07 04:28:45;;;;;;;4.55;2.60;;;;;;;19.94;59.81;100296.44;4971228;28;124706;-74
2021/08/07 04:31:13;;;;;;;3.25;2.40;;;;;;;19.92;59.63;100289.50;4970649;28;124111;-74
2021/08/07 04:33:41;;;;;;;6.47;2.47;;;;;;;19.89;59.78;100292.47;4971111;28;114042;-74
2021/08/07 04:36:11;;;;;;;3.50;2.33;;;;;;;19.87;59.62;100295.28;4971273;28;113402;-75
2021/08/07 04:38:39;;;;;;;3.20;2.00;;;;;;;19.83;59.73;100293.91;4971603;28;124265;-75
2021/08/07 04:41:06;;;;;;;3.25;2.00;;;;;;;19.81;59.75;100295.88;4970983;28;123836;-74
2021/08/07 04:43:37;;;;;;;4.25;2.30;;;;;;;19.80;59.59;100294.19;4959014;28;114085;-75
2021/08/07 04:46:04;;;;;;;5.38;2.35;;;;;;;19.79;59.59;100293.31;4971480;28;114024;-75
2021/08/07 04:48:31;;;;;;;3.05;2.28;;;;;;;19.80;59.80;100294.19;4973224;28;124591;-74
2021/08/07 04:51:13;;;;;;;3.25;2.45;;;;;;;19.79;59.87;100297.88;4971619;28;123346;-74
2021/08/07 04:53:42;;;;;;;4.15;2.50;;;;;;;19.78;60.04;100293.50;4970795;28;113968;-74
2021/08/07 04:56:16;;;;;;;4.22;2.70;;;;;;;19.79;60.26;100295.16;4965799;28;113159;-74
2021/08/07 04:58:43;;;;;;;5.32;2.50;;;;;;;19.79;60.01;100287.13;4972491;28;124179;-74
2021/08/07 05:01:13;;;;;;;3.95;2.63;;;;;;;19.79;59.80;100292.50;4962217;28;123881;-74
2021/08/07 05:03:40;;;;;;;4.30;2.50;;;;;;;19.79;59.89;100297.88;4970978;28;113458;-74
2021/08/07 05:06:12;;;;;;;5.15;2.58;;;;;;;19.78;59.92;100296.19;4970658;28;113265;-75
2021/08/07 05:08:39;;;;;;;3.47;2.78;;;;;;;19.73;60.05;100293.06;4971021;28;122851;-74
2021/08/07 05:11:07;;;;;;;4.20;3.03;;;;;;;19.70;59.87;100287.94;4970697;28;123845;-75
2021/08/07 05:13:34;;;;;;;5.88;3.25;;;;;;;19.65;59.83;100281.16;4971120;28;112774;-74
2021/08/07 05:16:04;;;;;;;5.22;2.92;;;;;;;19.63;59.97;100283.13;4969768;28;113173;-75
2021/08/07 05:18:32;;;;;;;3.85;2.83;;;;;;;19.64;60.15;100282.13;4971034;28;124089;-74
2021/08/07 05:21:01;;;;;;;4.63;3.15;;;;;;;19.67;60.17;100283.69;4969764;28;123265;-74
2021/08/07 05:23:29;;;;;;;7.57;3.20;;;;;;;19.70;60.40;100282.56;4970196;28;115196;-77
2021/08/07 05:25:56;;;;;;;4.28;2.83;;;;;;;19.74;60.25;100284.00;4972884;28;113935;-77
2021/08/07 05:28:23;;;;;;;5.90;2.75;;;;;;;19.78;60.37;100278.22;4963538;28;123853;-77
2021/08/07 05:30:50;;;;;;;5.57;2.60;;;;;;;19.80;60.51;100289.66;4970090;28;123112;-76
2021/08/07 05:33:17;;;;;;;2.97;2.60;;;;;;;19.83;60.52;100277.78;4969588;28;114767;-77
2021/08/07 05:35:45;;;;;;;3.47;2.60;;;;;;;19.88;60.46;100270.13;4970572;28;114168;-76
2021/08/07 05:38:17;;;;;;;4.80;2.50;;;;;;;19.92;60.58;100276.06;4969940;28;123962;-76
2021/08/07 05:40:44;;;;;;;3.53;2.42;;;;;;;19.97;60.34;100274.66;4970009;28;123058;-77
2021/08/07 05:43:12;;;;;;;3.33;2.60;;;;;;;19.99;60.61;100271.81;4967310;28;113598;-76
2021/08/07 05:45:40;;;;;;;3.83;2.78;;;;;;;20.05;60.47;100268.56;4970042;28;113124;-77
2021/08/07 05:48:07;;;;;;;5.90;2.50;;;;;;;20.10;60.42;100273.47;4969652;28;123444;-77
2021/08/07 05:50:38;;;;;;;4.43;2.47;;;;;;;20.17;60.79;100274.59;4955191;28;123393;-76
2021/08/07 05:53:06;;;;;;;3.85;2.53;;;;;;;20.21;60.75;100266.13;4970263;28;113598;-77
2021/08/07 05:55:35;;;;;;;4.40;2.47;;;;;;;20.30;60.49;100263.53;4969383;28;113589;-76
2021/08/07 05:58:03;;;;;;;3.63;2.22;;;;;;;20.35;60.57;100259.41;4969378;28;124082;-77
2021/08/07 06:00:32;;;;;;;4.93;2.40;;;;;;;20.39;60.49;100258.13;4969971;28;123901;-76
2021/08/07 06:02:59;;;;;;;3.78;2.25;;;;;;;20.45;60.46;100263.91;4986546;28;113888;-77
2021/08/07 06:05:32;;;;;;;5.70;2.60;;;;;;;20.50;60.25;100258.94;4969538;28;113860;-77
2021/08/07 06:08:03;;;;;;;5.55;2.33;;;;;;;20.53;60.22;100253.25;4961304;28;123277;-77
2021/08/07 06:10:31;;;;;;;4.88;2.53;;;;;;;20.56;60.05;100252.97;4969781;28;123464;-77
2021/08/07 06:12:59;;;;;;;4.00;2.47;;;;;;;20.60;60.06;100249.00;4969570;28;113842;-77
2021/08/07 06:15:26;;;;;;;3.88;2.40;;;;;;;20.62;59.83;100252.38;4971132;28;112879;-77
2021/08/07 06:17:56;;;;;;;2.92;2.33;;;;;;;20.65;59.80;100257.47;4969073;28;123873;-76
2021/08/07 06:20:25;;;;;;;7.15;2.60;;;;;;;20.68;59.77;100251.81;4953681;28;123377;-76
2021/08/07 06:22:54;;;;;;;4.68;2.80;;;;;;;20.71;59.69;100251.50;4968378;28;114643;-77
2021/08/07 06:25:22;;;;;;;5.22;2.88;;;;;;;20.75;59.36;100246.66;4969576;28;114738;-78
2021/08/07 06:27:54;;;;;;;3.80;2.72;;;;;;;20.77;59.61;100250.88;4968811;28;123256;-77
2021/08/07 06:30:24;;;;;;;4.25;2.65;;;;;;;20.80;59.64;100245.22;4969398;28;123588;-77
2021/08/07 06:32:53;;;;;;;4.57;2.90;;;;;;;20.85;59.50;100243.91;4969575;28;113297;-77
2021/08/07 06:35:21;;;;;;;5.47;2.92;;;;;;;20.89;59.25;100243.47;4971031;28;114300;-76
2021/08/07 06:37:49;;;;;;;5.60;3.35;;;;;;;20.94;59.55;100240.31;4993139;22;123569;-72
2021/08/07 06:40:17;;;;;;;5.28;3.40;;;;;;;21.02;59.52;100243.13;4999874;28;122174;-72
2021/08/07 06:42:45;;;;;;;5.07;3.45;;;;;;;21.10;59.48;100240.50;4999182;28;113188;-72
2021/08/07 06:45:31;;;;;;;4.90;3.30;;;;;;;21.18;59.58;100235.19;4990996;28;113517;-72
2021/08/07 06:48:04;;;;;;;5.88;3.25;;;;;;;21.28;59.42;100245.06;4992333;28;123707;-72
2021/08/07 06:50:33;;;;;;;4.80;3.42;;;;;;;21.37;59.29;100252.22;4976707;28;123424;-72
2021/08/07 06:53:00;;;;;;;5.82;3.40;;;;;;;21.45;59.01;100244.22;4973362;28;113485;-71
2021/08/07 06:55:28;;;;;;;6.25;3.60;;;;;;;21.53;58.85;100235.38;4978999;28;113899;-72
2021/08/07 06:57:55;;;;;;;4.70;3.10;;;;;;;21.65;58.79;100233.31;4976655;28;123536;-72
2021/08/07 07:00:23;;;;;;;5.07;3.38;;;;;;;21.75;58.62;100234.03;4992676;28;123006;-72
2021/08/07 07:02:51;;;;;;;4.63;3.35;;;;;;;21.87;58.58;100231.94;4992772;28;113299;-72
2021/08/07 07:05:18;;;;;;;6.30;3.60;;;;;;;22.01;58.37;100233.22;4992585;28;112444;-72
2021/08/07 07:07:46;;;;;;;5.78;3.15;;;;;;;22.10;58.23;100237.66;4992272;28;124810;-72
2021/08/07 07:10:15;;;;;;;5.45;3.25;;;;;;;22.25;58.24;100230.72;4992253;28;122652;-72
2021/08/07 07:12:42;;;;;;;5.97;3.30;;;;;;;22.42;57.99;100241.59;4975144;28;114391;-73
2021/08/07 07:15:11;;;;;;;4.30;3.38;;;;;;;22.55;57.75;100231.19;4983942;28;114516;-72
2021/08/07 07:17:40;;;;;;;4.18;3.60;;;;;;;22.69;57.71;100233.25;4994809;28;123103;-72
2021/08/07 07:20:07;;;;;;;3.95;2.90;;;;;;;22.84;57.40;100229.94;4995524;28;123352;-73
2021/08/07 07:22:36;;;;;;;5.82;2.50;;;;;;;22.98;57.01;100240.13;4990809;28;113436;-72
2021/08/07 07:25:06;;;;;;;4.25;2.85;;;;;;;23.10;56.72;100241.53;4989633;28;113737;-72
2021/08/07 07:27:33;;;;;;;3.17;2.67;;;;;;;23.21;56.50;100237.66;4985380;28;124737;-72
2021/08/07 07:30:01;;;;;;;4.65;2.55;;;;;;;23.31;56.15;100237.50;4989825;28;123788;-72
2021/08/07 07:32:28;;;;;;;3.95;2.65;;;;;;;23.40;56.04;100241.91;4993548;28;113578;-72
2021/08/07 07:34:56;;;;;;;4.85;2.30;;;;;;;23.46;55.49;100235.84;5013479;28;114083;-72
2021/08/07 07:37:25;;;;;;;7.68;2.70;;;;;;;23.55;55.40;100235.84;4984805;28;123005;-72
2021/08/07 07:39:52;;;;;;;4.75;2.85;;;;;;;23.66;55.37;100240.94;4992853;28;123035;-72
2021/08/07 07:42:20;;;;;;;5.68;3.13;;;;;;;23.77;55.07;100242.41;4996138;28;113491;-72
2021/08/07 07:44:47;;;;;;;4.50;3.00;;;;;;;23.85;54.82;100229.78;5013048;28;113974;-72
2021/08/07 07:47:15;;;;;;;6.75;2.92;;;;;;;23.95;54.43;100231.47;4995342;28;123744;-72
2021/08/07 07:49:42;;;;;;;4.25;2.90;;;;;;;23.99;53.96;100224.69;4995517;28;122974;-72
2021/08/07 07:52:15;;;;;;;5.80;2.65;;;;;;;24.03;53.85;100226.03;4995974;28;112582;-72
2021/08/07 07:54:42;;;;;;;5.72;2.78;;;;;;;24.05;53.52;100229.41;4996558;28;113079;-74
2021/08/07 07:57:11;;;;;;;5.80;3.03;;;;;;;24.03;53.08;100226.03;4995190;28;123779;-73
2021/08/07 07:59:40;;;;;;;5.63;2.60;;;;;;;24.01;53.08;100225.34;4995279;28;123857;-73
2021/08/07 08:02:07;;;;;;;8.38;2.80;;;;;;;24.00;52.81;100226.41;4995058;28;114378;-73
2021/08/07 08:04:36;;;;;;;4.60;2.55;;;;;;;23.99;52.72;100224.69;4983020;28;114217;-73
2021/08/07 08:07:04;;;;;;;3.67;2.00;;;;;;;24.04;53.07;100230.44;4986356;28;122876;-73
2021/08/07 08:09:32;;;;;;;4.32;2.45;;;;;;;24.13;52.72;100225.84;4989196;28;123229;-73
2021/08/07 08:11:59;;;;;;;5.55;2.30;;;;;;;24.20;52.35;100216.84;4995289;28;113374;-72
2021/08/07 08:14:28;;;;;;;5.95;2.00;;;;;;;24.26;52.39;100221.59;4986702;28;113481;-72
2021/08/07 08:16:56;;;;;;;2.53;1.95;;;;;;;24.37;52.68;100217.66;4978449;28;123347;-73
2021/08/07 08:19:24;;;;;;;6.20;2.00;;;;;;;24.49;52.43;100215.44;5003844;28;124626;-73
2021/08/07 08:21:51;;;;;;;3.85;2.10;;;;;;;24.57;52.33;100220.81;4995542;28;113966;-72
2021/08/07 08:24:19;;;;;;;2.30;1.58;;;;;;;24.63;51.82;100206.56;4995241;28;112181;-73
2021/08/07 08:26:47;;;;;;;2.45;1.73;;;;;;;24.75;51.73;100214.31;4988372;28;123247;-73
2021/08/07 08:29:14;;;;;;;2.58;1.60;;;;;;;24.86;51.51;100211.19;4983726;28;122761;-73
2021/08/07 08:31:41;;;;;;;2.70;1.52;;;;;;;24.92;50.85;100207.81;5013150;28;114215;-72
2021/08/07 08:34:10;;;;;;;3.22;1.75;;;;;;;24.91;50.71;100202.56;4995303;28;113574;-72
2021/08/07 08:36:38;;;;;;;4.53;1.50;;;;;;;24.90;50.94;100207.09;4995451;28;122918;-73
2021/08/07 08:39:06;;;;;;;5.15;1.42;;;;;;;24.95;50.97;100202.00;4995457;28;123581;-72
2021/08/07 08:41:36;;;;;;;3.03;1.10;;;;;;;25.03;50.46;100204.69;5002875;28;113146;-73
2021/08/07 08:44:04;;;;;;;4.70;1.48;;;;;;;25.08;50.51;100197.88;5008619;28;112567;-72
2021/08/07 08:46:32;;;;;;;3.47;1.55;;;;;;;25.11;50.34;100208.34;5008854;28;123296;-72
2021/08/07 08:49:00;;;;;;;5.47;1.70;;;;;;;25.11;50.68;100200.22;4997672;28;122712;-72
2021/08/07 08:51:30;;;;;;;3.92;1.63;;;;;;;25.08;50.35;100192.47;4964575;28;114426;-72
2021/08/07 08:54:01;;;;;;;3.03;1.50;;;;;;;25.03;50.48;100188.44;4994254;28;114499;-72
2021/08/07 08:56:34;;;;;;;3.97;1.88;;;;;;;25.09;50.91;100191.41;4977959;28;123007;-72
2021/08/07 08:59:02;;;;;;;4.85;1.88;;;;;;;25.13;50.92;100184.59;4978054;28;122428;-72
2021/08/07 09:01:30;;;;;;;3.25;2.00;;;;;;;25.15;50.74;100177.16;4970236;28;113724;-72
2021/08/07 09:03:58;;;;;;;3.40;1.73;;;;;;;25.25;50.73;100172.38;4989132;28;113061;-72
2021/08/07 09:06:26;;;;;;;2.50;1.60;;;;;;;25.34;50.53;100176.69;5012895;28;124034;-72
2021/08/07 09:09:05;;;;;;;3.42;1.55;;;;;;;25.43;50.66;100172.91;4995099;28;123145;-71
2021/08/07 09:11:35;;;;;;;3.72;1.70;;;;;;;25.53;50.42;100169.09;4987635;28;113379;-72
2021/08/07 09:14:32;;;;;;;3.50;2.13;;;;;;;25.56;50.02;100174.13;4993822;28;113035;-72
2021/08/07 09:17:07;;;;;;;5.50;1.60;;;;;;;25.54;49.51;100176.19;4993836;28;123166;-72
2021/08/07 09:19:39;;;;;;;4.45;1.33;;;;;;;25.49;49.37;100168.63;4993807;28;122816;-73
2021/08/07 09:22:13;;;;;;;4.57;1.60;;;;;;;25.50;49.86;100169.44;4994533;28;113917;-72
2021/08/07 09:25:01;;;;;;;4.13;1.60;;;;;;;25.56;49.82;100158.72;4994154;28;113005;-72
2021/08/07 09:27:32;;;;;;;3.55;1.40;;;;;;;25.61;49.65;100155.44;4994664;28;124731;-72
2021/08/07 09:30:23;;;;;;;3.97;1.42;;;;;;;25.64;49.88;100165.94;4993575;28;122530;-72
2021/08/07 09:33:00;;;;;;;2.30;1.33;;;;;;;25.63;49.27;100153.38;4976350;28;112974;-72
2021/08/07 09:35:44;;;;;;;3.30;1.27;;;;;;;25.59;49.52;100149.38;4995333;28;113681;-72
2021/08/07 09:38:22;;;;;;;3.00;1.30;;;;;;;25.59;49.32;100152.09;4993051;28;123227;-72
2021/08/07 09:41:10;;;;;;;3.88;1.55;;;;;;;25.63;48.79;100142.53;4993740;28;122508;-72
2021/08/07 09:43:50;;;;;;;2.47;1.25;;;;;;;25.68;48.90;100134.69;4993552;28;114659;-72
2021/08/07 09:46:25;;;;;;;3.92;1.20;;;;;;;25.74;48.76;100142.09;4992861;28;114232;-72
2021/08/07 09:48:58;;;;;;;2.70;1.27;;;;;;;25.84;49.23;100136.38;4994574;28;123481;-72
2021/08/07 09:51:33;;;;;;;3.70;1.27;;;;;;;25.94;48.52;100138.88;4977978;28;122961;-72
2021/08/07 09:54:15;;;;;;;2.78;1.17;;;;;;;26.02;47.76;100152.34;4994072;28;113139;-72
2021/08/07 09:56:52;;;;;;;2.20;0.98;;;;;;;25.97;47.29;100146.63;4994616;28;113928;-72
2021/08/07 09:59:25;;;;;;;4.25;1.10;;;;;;;25.88;46.94;100150.44;4993752;28;123341;-72
2021/08/07 10:01:55;;;;;;;3.20;1.10;;;;;;;25.78;47.22;100151.53;4994190;28;123002;-72
2021/08/07 10:04:38;;;;;;;3.65;1.17;;;;;;;25.73;47.14;100148.56;4993731;28;113689;-72
2021/08/07 10:07:09;;;;;;;3.67;1.27;;;;;;;25.72;47.10;100152.28;4994566;28;113248;-73
2021/08/07 10:09:41;;;;;;;3.25;1.05;;;;;;;25.68;46.99;100150.97;4993836;28;123386;-72
2021/08/07 10:12:15;;;;;;;3.25;1.10;;;;;;;25.63;46.77;100148.81;4973476;28;124221;-72
2021/08/07 10:14:48;;;;;;;3.97;1.20;;;;;;;25.57;47.13;100154.13;4993914;28;113559;-72
2021/08/07 10:17:18;;;;;;;3.22;1.20;;;;;;;25.49;46.92;100156.94;4988987;28;113555;-72
2021/08/07 10:19:50;;;;;;;6.40;1.15;;;;;;;25.40;47.14;100165.13;4973944;28;123748;-72
2021/08/07 10:22:19;;;;;;;4.22;1.13;;;;;;;25.29;47.36;100157.41;4999976;28;123356;-71
2021/08/07 10:24:53;;;;;;;3.10;1.20;;;;;;;25.17;48.17;100153.44;5014619;28;113114;-71
2021/08/07 10:27:21;;;;;;;2.40;1.25;;;;;;;25.10;48.65;100147.06;4998254;28;113057;-72
2021/08/07 10:29:55;;;;;;;4.93;1.50;;;;;;;25.06;49.37;100147.41;4995037;28;123638;-73
2021/08/07 10:32:25;;;;;;;4.82;1.67;;;;;;;25.07;49.43;100137.41;4996661;28;96730;-72
2021/08/07 10:34:53;;;;;;;4.22;1.50;;;;;;;25.13;50.49;100135.84;4994348;28;114549;-73
2021/08/07 10:37:23;;;;;;;3.58;1.10;;;;;;;25.22;50.49;100134.75;4995161;28;113911;-72
2021/08/07 10:39:52;;;;;;;3.97;1.38;;;;;;;25.32;50.12;100135.38;4994524;28;123208;-72
2021/08/07 10:42:20;;;;;;;1.88;0.90;;;;;;;25.39;49.78;100125.50;5008513;28;122192;-72
2021/08/07 10:44:50;;;;;;;5.03;1.17;;;;;;;25.42;49.72;100124.28;5012348;28;112437;-72
2021/08/07 10:47:43;;;;;;;3.92;1.05;;;;;;;25.52;49.54;100124.00;4996474;28;112049;-72
2021/08/07 10:50:24;;;;;;;3.60;0.90;;;;;;;25.63;49.12;100115.41;4985351;28;123893;-72
2021/08/07 10:53:00;;;;;;;;;;;;;;;25.73;49.54;100112.44;5013437;28;122303;-72
2021/08/07 10:55:49;;;;;;;3.70;1.00;;;;;;;25.80;48.45;100106.06;5003922;28;113979;-72
2021/08/07 10:58:45;;;;;;;2.67;0.90;;;;;;;25.82;48.04;100093.19;4986520;28;113400;-71
2021/08/07 11:01:22;;;;;;;2.63;0.90;;;;;;;25.86;48.21;100096.34;5001540;28;124893;-72
2021/08/07 11:03:50;;;;;;;3.58;1.30;;;;;;;25.93;47.83;100093.78;5014143;28;123979;-72
2021/08/07 11:06:18;;;;;;;5.82;1.13;;;;;;;25.95;47.04;100089.00;4989268;28;112449;-72
2021/08/07 11:08:46;;;;;;;4.78;0.90;;;;;;;25.97;47.15;100084.22;4986164;28;113691;-72
2021/08/07 11:11:31;;;;;;;4.38;0.80;;;;;;;25.97;46.96;100076.91;4982428;28;124070;-72
2021/08/07 11:14:33;;;;;;;2.50;0.90;;;;;;;26.03;46.83;100078.03;5011836;28;123926;-72
2021/08/07 11:17:04;;;;;;;2.17;0.88;;;;;;;26.11;47.02;100075.22;5008237;28;114227;-72
2021/08/07 11:19:49;;;;;;;3.17;0.85;;;;;;;26.16;46.28;100067.38;4995871;28;114922;-72
2021/08/07 11:22:42;;;;;;;1.90;0.70;;;;;;;26.23;46.60;100068.25;4978854;28;123274;-71
2021/08/07 11:25:14;;;;;;;1.70;0.80;;;;;;;26.37;46.51;100068.41;5012761;28;124693;-72
2021/08/07 11:27:49;;;;;;;2.53;0.82;;;;;;;26.49;46.04;100060.63;4995174;28;113834;-72
2021/08/07 11:30:32;;;;;;;;;;;;;;;26.57;46.90;100061.34;5014526;28;119697;-72
2021/08/07 11:33:13;;;;;;;2.33;0.80;;;;;;;26.71;45.81;100053.34;4980837;28;122800;-72
2021/08/07 11:35:46;;;;;;;2.50;0.80;;;;;;;26.74;45.11;100052.97;5012835;28;123895;-72